createdAt,value
2023-01-23T00:01:30.880Z,0.70
2023-01-23T00:03:58.401Z,0.70
2023-01-23T00:06:26.521Z,0.70
2023-01-23T00:08:53.799Z,0.70
2023-01-23T00:11:23.001Z,0.80
2023-01-23T00:13:50.280Z,0.80
2023-01-23T00:16:19.960Z,0.70
2023-01-23T00:18:48.065Z,0.70
2023-01-23T00:21:17.672Z,0.60
2023-01-23T00:23:47.916Z,0.70
2023-01-23T00:26:18.046Z,0.60
2023-01-23T00:28:46.579Z,0.50
2023-01-23T00:31:16.759Z,0.50
2023-01-23T00:33:44.919Z,0.50
2023-01-23T00:36:13.993Z,0.60
2023-01-23T00:38:41.861Z,0.70
2023-01-23T00:41:09.047Z,0.70
2023-01-23T00:43:36.317Z,0.70
2023-01-23T00:46:03.452Z,0.70
2023-01-23T00:48:30.988Z,0.70
2023-01-23T00:50:58.181Z,0.60
2023-01-23T00:53:25.252Z,0.70
2023-01-23T00:55:53.638Z,0.70
2023-01-23T00:58:20.740Z,0.80
2023-01-23T01:00:49.399Z,0.70
2023-01-23T01:03:19.433Z,0.70
2023-01-23T01:05:47.082Z,0.90
2023-01-23T01:08:14.294Z,0.80
2023-01-23T01:10:42.256Z,0.70
2023-01-23T01:13:10.548Z,0.70
2023-01-23T01:15:38.254Z,0.70
2023-01-23T01:18:05.536Z,0.70
2023-01-23T01:20:32.773Z,0.70
2023-01-23T01:23:00.693Z,0.80
2023-01-23T01:25:28.229Z,0.80
2023-01-23T01:27:56.198Z,0.80
2023-01-23T01:30:23.511Z,0.80
2023-01-23T01:32:50.562Z,0.80
2023-01-23T01:35:17.765Z,0.70
2023-01-23T01:37:45.029Z,0.80
2023-01-23T01:40:18.558Z,0.80
2023-01-23T01:42:50.221Z,0.70
2023-01-23T01:45:55.060Z,0.70
2023-01-23T01:48:27.298Z,0.80
2023-01-23T01:50:54.669Z,0.90
2023-01-23T01:53:26.515Z,0.90
2023-01-23T01:55:54.019Z,0.80
2023-01-23T01:58:22.121Z,0.80
2023-01-23T02:00:49.300Z,0.90
2023-01-23T02:03:17.639Z,0.90
2023-01-23T02:05:48.463Z,0.80
2023-01-23T02:08:40.317Z,0.80
2023-01-23T02:11:07.662Z,0.90
2023-01-23T02:13:37.167Z,0.90
2023-01-23T02:16:07.590Z,0.90
2023-01-23T02:18:36.954Z,0.90
2023-01-23T02:21:09.132Z,0.90
2023-01-23T02:24:20.835Z,0.80
2023-01-23T02:26:48.188Z,0.80
2023-01-23T02:29:16.593Z,0.80
2023-01-23T02:31:56.346Z,0.80
2023-01-23T02:34:26.163Z,0.80
2023-01-23T02:36:59.023Z,0.90
2023-01-23T02:39:27.660Z,0.90
2023-01-23T02:41:57.922Z,0.90
2023-01-23T02:44:38.947Z,0.90
2023-01-23T02:47:11.869Z,0.90
2023-01-23T02:49:40.466Z,0.80
2023-01-23T02:52:09.955Z,0.90
2023-01-23T02:54:37.992Z,0.90
2023-01-23T02:57:05.189Z,0.70
2023-01-23T02:59:51.951Z,0.80
2023-01-23T03:02:20.273Z,0.90
2023-01-23T03:04:48.654Z,0.80
2023-01-23T03:07:16.068Z,0.80
2023-01-23T03:09:47.850Z,0.70
2023-01-23T03:12:15.817Z,0.80
2023-01-23T03:14:42.933Z,0.80
2023-01-23T03:17:11.209Z,0.70
2023-01-23T03:19:39.185Z,0.80
2023-01-23T03:22:07.219Z,0.90
2023-01-23T03:24:34.736Z,0.80
2023-01-23T03:27:02.432Z,0.90
2023-01-23T03:29:53.719Z,0.80
2023-01-23T03:32:22.546Z,0.80
2023-01-23T03:34:49.636Z,0.80
2023-01-23T03:37:17.598Z,0.70
2023-01-23T03:40:05.801Z,0.80
2023-01-23T03:42:36.401Z,0.70
2023-01-23T03:45:06.163Z,0.80
2023-01-23T03:47:35.908Z,0.70
2023-01-23T03:50:03.218Z,0.80
2023-01-23T03:52:38.005Z,0.80
2023-01-23T03:55:06.276Z,0.80
2023-01-23T03:57:34.057Z,0.80
2023-01-23T04:00:24.305Z,0.80
2023-01-23T04:03:05.033Z,0.80
2023-01-23T04:05:32.561Z,0.90
2023-01-23T04:08:01.277Z,0.80
2023-01-23T04:10:29.089Z,0.80
2023-01-23T04:13:02.714Z,0.70
2023-01-23T04:15:33.175Z,0.80
2023-01-23T04:18:01.916Z,0.80
2023-01-23T04:20:29.857Z,0.80
2023-01-23T04:22:58.276Z,0.70
2023-01-23T04:25:28.642Z,0.70
2023-01-23T04:27:55.790Z,0.70
2023-01-23T04:30:23.149Z,0.70
2023-01-23T04:32:50.404Z,0.70
2023-01-23T04:35:19.386Z,0.70
2023-01-23T04:37:46.554Z,0.70
2023-01-23T04:40:13.871Z,0.60
2023-01-23T04:42:51.110Z,0.60
2023-01-23T04:45:30.801Z,0.50
2023-01-23T04:48:20.784Z,0.60
2023-01-23T04:50:48.911Z,0.70
2023-01-23T04:53:16.236Z,0.50
2023-01-23T04:55:47.469Z,0.60
2023-01-23T04:58:16.521Z,0.60
2023-01-23T05:00:43.785Z,0.50
2023-01-23T05:03:11.031Z,0.50
2023-01-23T05:05:44.320Z,0.50
2023-01-23T05:08:12.680Z,0.40
2023-01-23T05:10:41.335Z,0.40
2023-01-23T05:13:11.325Z,0.40
2023-01-23T05:15:38.532Z,0.40
2023-01-23T05:18:05.677Z,0.50
2023-01-23T05:20:35.649Z,0.50
2023-01-23T05:23:04.959Z,0.50
2023-01-23T05:25:40.212Z,0.50
2023-01-23T05:28:07.436Z,0.60
2023-01-23T05:30:34.906Z,0.50
2023-01-23T05:33:16.202Z,0.50
2023-01-23T05:35:43.830Z,0.40
2023-01-23T05:38:13.076Z,0.40
2023-01-23T05:40:40.462Z,0.40
2023-01-23T05:43:36.898Z,0.30
2023-01-23T05:46:20.846Z,0.30
2023-01-23T05:48:52.544Z,0.30
2023-01-23T05:51:21.049Z,0.40
2023-01-23T05:53:48.571Z,0.40
2023-01-23T05:56:17.726Z,0.30
2023-01-23T05:59:05.474Z,0.30
2023-01-23T06:01:40.923Z,0.20
2023-01-23T06:04:26.588Z,0.20
2023-01-23T06:07:17.645Z,0.20
2023-01-23T06:09:46.128Z,0.30
2023-01-23T06:12:13.884Z,0.30
2023-01-23T06:14:41.257Z,0.30
2023-01-23T06:17:08.630Z,0.20
2023-01-23T06:19:36.031Z,0.10
2023-01-23T06:22:04.452Z,0.10
2023-01-23T06:24:39.343Z,0.20
2023-01-23T06:27:09.113Z,0.20
2023-01-23T06:29:38.007Z,0.30
2023-01-23T06:32:05.602Z,0.20
2023-01-23T06:34:32.910Z,0.20
2023-01-23T06:37:03.766Z,0.20
2023-01-23T06:39:31.023Z,0.00
2023-01-23T06:41:58.543Z,0.00
2023-01-23T06:44:26.021Z,0.10
2023-01-23T06:46:54.282Z,0.10
2023-01-23T06:49:23.817Z,0.10
2023-01-23T06:51:50.910Z,0.10
2023-01-23T06:54:18.488Z,0.10
2023-01-23T06:56:45.694Z,0.10
2023-01-23T06:59:13.679Z,0.10
2023-01-23T07:01:41.982Z,0.10
2023-01-23T07:04:20.233Z,0.10
2023-01-23T07:06:50.179Z,0.00
2023-01-23T07:09:19.077Z,0.10
2023-01-23T07:11:54.717Z,0.10
2023-01-23T07:14:22.191Z,0.10
2023-01-23T07:16:54.120Z,0.20
2023-01-23T07:19:21.464Z,0.10
2023-01-23T07:21:49.279Z,0.10
2023-01-23T07:24:16.643Z,0.20
2023-01-23T07:26:43.798Z,0.10
2023-01-23T07:29:11.472Z,0.00
2023-01-23T07:31:38.749Z,0.00
2023-01-23T07:34:06.397Z,0.00
2023-01-23T07:36:33.507Z,0.10
2023-01-23T07:39:00.760Z,0.10
2023-01-23T07:41:27.958Z,0.00
2023-01-23T07:43:55.078Z,-0.10
2023-01-23T07:46:23.815Z,0.00
2023-01-23T07:48:51.136Z,0.10
2023-01-23T07:51:18.315Z,0.10
2023-01-23T07:53:45.519Z,0.10
2023-01-23T07:56:13.680Z,0.10
2023-01-23T07:58:40.844Z,0.10
2023-01-23T08:01:11.947Z,0.10
2023-01-23T08:03:40.218Z,0.10
2023-01-23T08:06:08.126Z,0.10
2023-01-23T08:08:35.228Z,0.20
2023-01-23T08:11:12.117Z,0.10
2023-01-23T08:13:39.993Z,0.20
2023-01-23T08:16:07.849Z,0.20
2023-01-23T08:18:35.082Z,0.20
2023-01-23T08:21:03.416Z,0.20
2023-01-23T08:23:33.078Z,0.20
2023-01-23T08:26:02.836Z,0.10
2023-01-23T08:28:30.288Z,0.10
2023-01-23T08:31:01.612Z,0.20
2023-01-23T08:33:28.971Z,0.30
2023-01-23T08:35:58.111Z,0.30
2023-01-23T08:38:25.819Z,0.30
2023-01-23T08:40:55.600Z,0.40
2023-01-23T08:43:22.848Z,0.20
2023-01-23T08:45:52.333Z,0.30
2023-01-23T08:48:20.558Z,0.30
2023-01-23T08:50:47.665Z,0.30
2023-01-23T08:53:15.597Z,0.30
2023-01-23T08:55:42.885Z,0.30
2023-01-23T08:58:13.240Z,0.40
2023-01-23T09:00:40.961Z,0.30
2023-01-23T09:03:11.185Z,0.30
2023-01-23T09:05:38.602Z,0.30
2023-01-23T09:08:05.724Z,0.40
2023-01-23T09:10:33.234Z,0.40
2023-01-23T09:13:00.325Z,0.40
2023-01-23T09:15:27.665Z,0.40
2023-01-23T09:17:54.769Z,0.50
2023-01-23T09:20:22.769Z,0.50
2023-01-23T09:22:50.033Z,0.60
2023-01-23T09:25:17.327Z,0.50
2023-01-23T09:27:44.497Z,0.60
2023-01-23T09:30:12.472Z,0.60
2023-01-23T09:32:39.569Z,0.70
2023-01-23T09:35:07.109Z,0.60
2023-01-23T09:37:58.541Z,0.50
2023-01-23T09:40:47.229Z,0.50
2023-01-23T09:43:36.178Z,0.70
2023-01-23T09:46:41.174Z,0.70
2023-01-23T09:49:19.584Z,0.70
2023-01-23T09:52:20.698Z,0.70
2023-01-23T09:55:01.546Z,0.70
2023-01-23T09:57:48.490Z,0.70
2023-01-23T10:00:27.733Z,0.70
2023-01-23T10:02:55.382Z,0.80
2023-01-23T10:05:30.595Z,0.80
2023-01-23T10:08:49.670Z,0.80
2023-01-23T10:12:12.927Z,0.90
2023-01-23T10:15:19.747Z,1.00
2023-01-23T10:18:23.532Z,0.90
2023-01-23T10:21:03.697Z,0.90
2023-01-23T10:24:11.727Z,0.90
2023-01-23T10:26:45.048Z,0.80
2023-01-23T10:32:06.690Z,0.90
2023-01-23T10:34:55.745Z,0.90
2023-01-23T10:37:39.918Z,0.90
2023-01-23T10:40:38.784Z,1.00
2023-01-23T10:43:21.032Z,0.90
2023-01-23T10:45:49.711Z,1.00
2023-01-23T10:48:39.649Z,1.00
2023-01-23T10:51:28.885Z,1.00
2023-01-23T10:54:30.904Z,0.90
2023-01-23T10:57:01.679Z,1.00
2023-01-23T11:00:04.474Z,1.00
2023-01-23T11:02:34.458Z,1.00
2023-01-23T11:05:03.978Z,1.10
2023-01-23T11:07:36.642Z,1.00
2023-01-23T11:10:33.160Z,1.00
2023-01-23T11:13:01.140Z,1.00
2023-01-23T11:15:42.876Z,1.00
2023-01-23T11:18:39.796Z,1.10
2023-01-23T11:21:07.086Z,1.10
2023-01-23T11:23:34.613Z,1.20
2023-01-23T11:26:03.377Z,1.30
2023-01-23T11:28:35.590Z,1.30
2023-01-23T11:31:15.147Z,1.20
2023-01-23T11:33:57.964Z,1.20
2023-01-23T11:37:06.933Z,1.30
2023-01-23T11:40:05.135Z,1.30
2023-01-23T11:42:32.685Z,1.40
2023-01-23T11:45:00.729Z,1.40
2023-01-23T11:48:06.546Z,1.30
2023-01-23T11:51:05.147Z,1.30
2023-01-23T11:53:44.809Z,1.30
2023-01-23T11:56:31.880Z,1.30
2023-01-23T11:59:24.468Z,1.40
2023-01-23T12:02:26.941Z,1.30
2023-01-23T12:05:25.029Z,1.30
2023-01-23T12:08:38.568Z,1.40
2023-01-23T12:11:20.322Z,1.40
2023-01-23T12:14:16.103Z,1.30
2023-01-23T12:17:29.688Z,1.40
2023-01-23T12:20:38.781Z,1.30
2023-01-23T12:23:30.836Z,1.40
2023-01-23T12:26:15.333Z,1.30
2023-01-23T12:29:35.869Z,1.30
2023-01-23T12:32:40.300Z,1.30
2023-01-23T12:35:41.252Z,1.40
2023-01-23T12:41:44.426Z,1.50
2023-01-23T12:44:21.778Z,1.40
2023-01-23T12:47:12.197Z,1.40
2023-01-23T12:49:45.893Z,1.40
2023-01-23T12:52:26.066Z,1.40
2023-01-23T12:55:17.851Z,1.50
2023-01-23T12:58:07.088Z,1.40
2023-01-23T13:01:21.314Z,1.40
2023-01-23T13:04:32.072Z,1.40
2023-01-23T13:07:31.622Z,1.40
2023-01-23T13:10:59.317Z,1.40
2023-01-23T13:13:27.723Z,1.40
2023-01-23T13:16:15.696Z,1.40
2023-01-23T13:19:16.483Z,1.40
2023-01-23T13:22:32.130Z,1.40
2023-01-23T13:25:19.530Z,1.40
2023-01-23T13:27:58.470Z,1.50
2023-01-23T13:30:58.496Z,1.40
2023-01-23T13:34:06.612Z,1.50
2023-01-23T13:36:37.803Z,1.50
2023-01-23T13:39:35.760Z,1.50
2023-01-23T13:42:34.789Z,1.50
2023-01-23T13:45:27.618Z,1.50
2023-01-23T14:21:40.089Z,1.60
2023-01-23T14:24:25.073Z,1.60
2023-01-23T14:27:02.538Z,1.70
2023-01-23T14:29:31.867Z,1.60
2023-01-23T14:31:58.944Z,1.60
2023-01-23T14:34:26.859Z,1.60
2023-01-23T14:37:05.856Z,1.70
2023-01-23T14:39:35.763Z,1.60
2023-01-23T14:42:05.375Z,1.50
2023-01-23T14:44:42.274Z,1.60
2023-01-23T14:47:37.938Z,1.60
2023-01-23T14:50:20.371Z,1.60
2023-01-23T14:53:01.108Z,1.60
2023-01-23T14:55:30.406Z,1.60
2023-01-23T14:58:00.813Z,1.70
2023-01-23T15:00:29.454Z,1.70
2023-01-23T15:02:56.770Z,1.60
2023-01-23T15:05:28.948Z,1.60
2023-01-23T15:08:06.618Z,1.60
2023-01-23T15:10:46.863Z,1.60
2023-01-23T15:13:23.214Z,1.70
2023-01-23T15:16:02.769Z,1.70
2023-01-23T15:18:32.231Z,1.70
2023-01-23T15:21:07.196Z,1.70
2023-01-23T15:23:38.667Z,1.70
2023-01-23T15:26:31.995Z,1.70
2023-01-23T15:29:22.103Z,1.70
2023-01-23T15:31:54.855Z,1.70
2023-01-23T15:34:28.368Z,1.80
2023-01-23T15:37:08.392Z,1.70
2023-01-23T15:39:57.640Z,1.80
2023-01-23T15:42:31.439Z,1.80
2023-01-23T15:45:01.515Z,1.80
2023-01-23T15:47:34.573Z,1.80
2023-01-23T15:50:03.216Z,1.80
2023-01-23T15:52:52.237Z,1.80
2023-01-23T15:55:21.379Z,1.90
2023-01-23T15:57:48.587Z,1.90
2023-01-23T16:00:27.184Z,1.80
2023-01-23T16:02:57.515Z,1.90
2023-01-23T16:05:31.031Z,1.80
2023-01-23T16:08:03.503Z,1.80
2023-01-23T16:10:36.923Z,1.90
2023-01-23T16:13:05.075Z,1.90
2023-01-23T16:15:33.622Z,1.90
2023-01-23T16:18:03.135Z,1.90
2023-01-23T16:20:39.940Z,1.90
2023-01-23T16:23:18.037Z,1.90
2023-01-23T16:25:46.684Z,1.90
2023-01-23T16:28:15.855Z,2.00
2023-01-23T16:30:43.710Z,2.00
2023-01-23T16:33:10.962Z,2.00
2023-01-23T16:35:38.411Z,1.90
2023-01-23T16:38:06.163Z,2.00
2023-01-23T16:40:33.904Z,2.00
2023-01-23T16:43:03.161Z,2.00
2023-01-23T16:45:32.363Z,1.90
2023-01-23T16:47:59.843Z,1.90
2023-01-23T16:50:34.433Z,2.00
2023-01-23T16:53:15.234Z,1.90
2023-01-23T16:55:44.703Z,2.00
2023-01-23T16:58:21.475Z,2.00
2023-01-23T17:00:49.726Z,2.00
2023-01-23T17:03:29.534Z,2.10
2023-01-23T17:05:56.941Z,2.10
2023-01-23T17:08:25.675Z,2.10
2023-01-23T17:11:00.123Z,2.10
2023-01-23T17:13:28.553Z,2.10
2023-01-23T17:15:56.489Z,2.10
2023-01-23T17:18:32.933Z,2.20
2023-01-23T17:21:00.412Z,2.20
2023-01-23T17:23:27.607Z,2.20
2023-01-23T17:26:00.770Z,2.20
2023-01-23T17:28:29.064Z,2.20
2023-01-23T17:31:00.572Z,2.30
2023-01-23T17:33:31.808Z,2.20
2023-01-23T17:36:00.522Z,2.30
2023-01-23T17:38:34.585Z,2.30
2023-01-23T17:41:02.354Z,2.30
2023-01-23T17:43:29.551Z,2.30
2023-01-23T17:45:57.041Z,2.30
2023-01-23T17:48:29.987Z,2.30
2023-01-23T17:50:57.803Z,2.40
2023-01-23T17:53:25.150Z,2.30
2023-01-23T17:55:52.985Z,2.30
2023-01-23T17:58:20.795Z,2.30
2023-01-23T18:00:51.067Z,2.30
2023-01-23T18:03:22.068Z,2.30
2023-01-23T18:05:50.231Z,2.30
2023-01-23T18:08:19.430Z,2.30
2023-01-23T18:10:48.824Z,2.30
2023-01-23T18:13:47.093Z,2.30
2023-01-23T18:16:27.118Z,2.20
2023-01-23T18:19:04.899Z,2.20
2023-01-23T18:21:32.340Z,2.20
2023-01-23T18:23:59.700Z,2.20
2023-01-23T18:26:46.203Z,2.10
2023-01-23T18:29:42.597Z,2.30
2023-01-23T18:32:51.231Z,2.20
2023-01-23T18:36:04.588Z,2.20
2023-01-23T18:39:10.748Z,2.20
2023-01-23T18:41:42.663Z,2.30
2023-01-23T18:44:25.417Z,2.30
2023-01-23T18:46:52.769Z,2.20
2023-01-23T18:49:32.317Z,2.30
2023-01-23T18:52:15.043Z,2.20
2023-01-23T18:55:05.361Z,2.30
2023-01-23T18:58:15.084Z,2.20
2023-01-23T19:01:18.198Z,2.30
2023-01-23T19:03:46.924Z,2.10
2023-01-23T19:06:19.879Z,2.20
2023-01-23T19:08:48.106Z,2.20
2023-01-23T19:12:02.128Z,2.20
2023-01-23T19:15:07.302Z,2.20
2023-01-23T19:18:17.093Z,2.20
2023-01-23T19:20:55.228Z,2.20
2023-01-23T19:23:39.177Z,2.10
2023-01-23T19:26:10.103Z,2.10
2023-01-23T19:28:38.509Z,2.20
2023-01-23T19:31:09.822Z,2.20
2023-01-23T19:33:37.709Z,2.20
2023-01-23T19:36:11.217Z,2.20
2023-01-23T19:38:39.468Z,2.20
2023-01-23T19:41:19.620Z,2.10
2023-01-23T19:43:51.494Z,2.10
2023-01-23T19:46:20.336Z,2.20
2023-01-23T19:48:47.973Z,2.30
2023-01-23T19:51:18.516Z,2.30
2023-01-23T19:53:46.686Z,2.30
2023-01-23T19:56:16.118Z,2.30
2023-01-23T19:58:43.487Z,2.30
2023-01-23T20:01:38.451Z,2.40
2023-01-23T20:04:07.005Z,2.40
2023-01-23T20:06:35.495Z,2.40
2023-01-23T20:09:02.564Z,2.40
2023-01-23T20:11:29.685Z,2.40
2023-01-23T20:13:56.758Z,2.40
2023-01-23T20:16:27.214Z,2.40
2023-01-23T20:18:55.260Z,2.40
2023-01-23T20:21:24.020Z,2.40
2023-01-23T20:23:52.012Z,2.40
2023-01-23T20:26:21.649Z,2.40
2023-01-23T20:28:51.248Z,2.40
2023-01-23T20:31:18.558Z,2.30
2023-01-23T20:33:45.766Z,2.40
2023-01-23T20:36:13.595Z,2.40
2023-01-23T20:38:41.085Z,2.40
2023-01-23T20:41:16.189Z,2.50
2023-01-23T20:43:43.433Z,2.50
2023-01-23T20:46:11.674Z,2.50
2023-01-23T20:48:40.819Z,2.40
2023-01-23T20:51:09.798Z,2.40
2023-01-23T20:53:40.001Z,2.40
2023-01-23T20:56:18.806Z,2.40
2023-01-23T20:59:07.388Z,2.40
2023-01-23T21:01:56.724Z,2.50
2023-01-23T21:04:26.980Z,2.60
2023-01-23T21:06:54.042Z,2.60
2023-01-23T21:09:21.932Z,2.60
2023-01-23T21:11:51.003Z,2.50
2023-01-23T21:14:18.461Z,2.60
2023-01-23T21:16:45.616Z,2.60
2023-01-23T21:19:12.725Z,2.60
2023-01-23T21:21:40.156Z,2.60
2023-01-23T21:24:08.075Z,2.60
2023-01-23T21:26:38.089Z,2.60
2023-01-23T21:29:08.078Z,2.60
2023-01-23T21:31:39.350Z,2.50
2023-01-23T21:34:09.579Z,2.50
2023-01-23T21:36:37.064Z,2.60
2023-01-23T21:39:05.427Z,2.60
2023-01-23T21:41:32.809Z,2.60
2023-01-23T21:43:59.929Z,2.70
2023-01-23T21:46:27.156Z,2.70
2023-01-23T21:48:54.290Z,2.60
2023-01-23T21:51:23.656Z,2.60
2023-01-23T21:53:51.746Z,2.70
2023-01-23T21:56:21.375Z,2.60
2023-01-23T21:58:49.059Z,2.70
2023-01-23T22:01:42.386Z,2.70
2023-01-23T22:04:12.455Z,2.70
2023-01-23T22:06:41.977Z,2.70
2023-01-23T22:09:10.883Z,2.70
2023-01-23T22:11:37.981Z,2.70
2023-01-23T22:14:05.204Z,2.70
2023-01-23T22:16:49.348Z,2.60
2023-01-23T22:19:19.093Z,2.60
2023-01-23T22:21:46.896Z,2.60
2023-01-23T22:24:15.201Z,2.70
2023-01-23T22:26:43.147Z,2.70
2023-01-23T22:29:12.608Z,2.70
2023-01-23T22:31:39.795Z,2.70
2023-01-23T22:34:07.037Z,2.60
2023-01-23T22:36:34.123Z,2.70
2023-01-23T22:39:01.235Z,2.70
2023-01-23T22:41:28.715Z,2.80
2023-01-23T22:43:59.233Z,2.80
2023-01-23T22:46:26.801Z,2.90
2023-01-23T22:48:53.947Z,2.90
2023-01-23T22:51:26.364Z,2.90
2023-01-23T22:53:54.628Z,2.80
2023-01-23T22:56:22.399Z,2.80
2023-01-23T22:58:51.277Z,2.80
2023-01-23T23:01:19.287Z,2.80
2023-01-23T23:03:46.446Z,2.80
2023-01-23T23:06:15.094Z,2.80
2023-01-23T23:08:42.968Z,2.80
2023-01-23T23:11:13.975Z,2.80
2023-01-23T23:13:41.840Z,2.80
2023-01-23T23:16:19.601Z,2.70
2023-01-23T23:18:49.804Z,2.70
2023-01-23T23:21:20.604Z,2.80
2023-01-23T23:23:48.133Z,2.80
2023-01-23T23:26:15.569Z,2.80
2023-01-23T23:28:43.050Z,2.80
2023-01-23T23:31:10.634Z,2.90
2023-01-23T23:33:38.072Z,2.80
2023-01-23T23:36:05.899Z,2.80
2023-01-23T23:38:33.100Z,2.80
2023-01-23T23:41:02.977Z,2.70
2023-01-23T23:43:30.298Z,2.70
2023-01-23T23:46:00.017Z,2.80
2023-01-23T23:48:28.123Z,2.80
2023-01-23T23:50:55.564Z,2.80
2023-01-23T23:53:23.111Z,2.70
2023-01-23T23:55:50.208Z,2.70
2023-01-23T23:58:17.402Z,2.70
